sensor_id;sensor_type;location;lat;lon;timestamp;P1;durP1;ratioP1;P2;durP2;ratioP2
18693;SDS011;9477;51.414;10.362;2023-05-07T00:01:44;34.20;;;21.23;;
18693;SDS011;9477;51.414;10.362;2023-05-07T00:03:47;31.63;;;21.70;;
18693;SDS011;9477;51.414;10.362;2023-05-07T00:05:50;31.30;;;22.97;;
18693;SDS011;9477;51.414;10.362;2023-05-07T00:07:54;34.60;;;23.90;;
18693;SDS011;9477;51.414;10.362;2023-05-07T00:10:01;30.20;;;21.47;;
18693;SDS011;9477;51.414;10.362;2023-05-07T00:12:03;33.80;;;22.57;;
18693;SDS011;9477;51.414;10.362;2023-05-07T00:14:06;31.17;;;21.60;;
18693;SDS011;9477;51.414;10.362;2023-05-07T00:16:09;33.27;;;24.10;;
18693;SDS011;9477;51.414;10.362;2023-05-07T00:18:12;32.77;;;21.90;;
18693;SDS011;9477;51.414;10.362;2023-05-07T00:20:15;33.93;;;22.77;;
18693;SDS011;9477;51.414;10.362;2023-05-07T00:22:18;33.33;;;22.30;;
18693;SDS011;9477;51.414;10.362;2023-05-07T00:24:21;29.03;;;21.07;;
18693;SDS011;9477;51.414;10.362;2023-05-07T00:26:26;32.60;;;23.30;;
18693;SDS011;9477;51.414;10.362;2023-05-07T00:28:29;31.40;;;21.50;;
18693;SDS011;9477;51.414;10.362;2023-05-07T00:30:32;31.97;;;22.53;;
18693;SDS011;9477;51.414;10.362;2023-05-07T00:32:35;35.70;;;23.23;;
18693;SDS011;9477;51.414;10.362;2023-05-07T00:34:38;36.90;;;23.87;;
18693;SDS011;9477;51.414;10.362;2023-05-07T00:36:41;33.63;;;23.47;;
18693;SDS011;9477;51.414;10.362;2023-05-07T00:38:44;37.60;;;22.93;;
18693;SDS011;9477;51.414;10.362;2023-05-07T00:40:47;35.40;;;24.67;;
18693;SDS011;9477;51.414;10.362;2023-05-07T00:42:51;34.20;;;22.10;;
18693;SDS011;9477;51.414;10.362;2023-05-07T00:44:57;34.70;;;22.97;;
18693;SDS011;9477;51.414;10.362;2023-05-07T00:47:01;34.73;;;22.27;;
18693;SDS011;9477;51.414;10.362;2023-05-07T00:49:05;34.53;;;23.37;;
18693;SDS011;9477;51.414;10.362;2023-05-07T00:51:09;32.73;;;22.60;;
18693;SDS011;9477;51.414;10.362;2023-05-07T00:53:12;32.03;;;22.10;;
18693;SDS011;9477;51.414;10.362;2023-05-07T00:55:16;34.20;;;22.17;;
18693;SDS011;9477;51.414;10.362;2023-05-07T00:57:19;34.20;;;23.73;;
18693;SDS011;9477;51.414;10.362;2023-05-07T00:59:25;32.10;;;21.97;;
18693;SDS011;9477;51.414;10.362;2023-05-07T01:01:28;30.43;;;21.77;;
18693;SDS011;9477;51.414;10.362;2023-05-07T01:03:31;33.57;;;22.40;;
18693;SDS011;9477;51.414;10.362;2023-05-07T01:05:34;33.77;;;21.67;;
18693;SDS011;9477;51.414;10.362;2023-05-07T01:07:38;34.87;;;22.33;;
18693;SDS011;9477;51.414;10.362;2023-05-07T01:09:42;32.60;;;21.97;;
18693;SDS011;9477;51.414;10.362;2023-05-07T01:11:46;30.87;;;21.53;;
18693;SDS011;9477;51.414;10.362;2023-05-07T01:13:50;29.17;;;21.37;;
18693;SDS011;9477;51.414;10.362;2023-05-07T01:15:54;29.30;;;20.33;;
18693;SDS011;9477;51.414;10.362;2023-05-07T01:17:57;28.40;;;20.80;;
18693;SDS011;9477;51.414;10.362;2023-05-07T01:20:01;27.83;;;20.33;;
18693;SDS011;9477;51.414;10.362;2023-05-07T01:22:07;27.17;;;19.37;;
18693;SDS011;9477;51.414;10.362;2023-05-07T01:24:13;27.37;;;20.17;;
18693;SDS011;9477;51.414;10.362;2023-05-07T01:26:16;26.57;;;19.23;;
18693;SDS011;9477;51.414;10.362;2023-05-07T01:28:20;26.00;;;18.83;;
18693;SDS011;9477;51.414;10.362;2023-05-07T01:30:23;24.67;;;18.33;;
18693;SDS011;9477;51.414;10.362;2023-05-07T01:32:27;25.90;;;18.80;;
18693;SDS011;9477;51.414;10.362;2023-05-07T01:34:34;28.90;;;19.00;;
18693;SDS011;9477;51.414;10.362;2023-05-07T01:36:39;30.13;;;20.93;;
18693;SDS011;9477;51.414;10.362;2023-05-07T01:38:45;24.33;;;17.93;;
18693;SDS011;9477;51.414;10.362;2023-05-07T01:40:49;27.23;;;19.57;;
18693;SDS011;9477;51.414;10.362;2023-05-07T01:42:52;26.93;;;19.30;;
18693;SDS011;9477;51.414;10.362;2023-05-07T01:44:56;29.20;;;20.43;;
18693;SDS011;9477;51.414;10.362;2023-05-07T01:47:00;26.63;;;20.23;;
18693;SDS011;9477;51.414;10.362;2023-05-07T01:49:04;26.57;;;20.00;;
18693;SDS011;9477;51.414;10.362;2023-05-07T01:51:07;32.30;;;20.43;;
18693;SDS011;9477;51.414;10.362;2023-05-07T01:53:11;25.83;;;20.70;;
18693;SDS011;9477;51.414;10.362;2023-05-07T01:55:13;28.70;;;20.63;;
18693;SDS011;9477;51.414;10.362;2023-05-07T01:57:18;29.03;;;21.00;;
18693;SDS011;9477;51.414;10.362;2023-05-07T01:59:20;27.83;;;19.33;;
18693;SDS011;9477;51.414;10.362;2023-05-07T02:01:23;30.30;;;20.37;;
18693;SDS011;9477;51.414;10.362;2023-05-07T02:03:26;27.67;;;19.60;;
18693;SDS011;9477;51.414;10.362;2023-05-07T02:05:29;31.17;;;21.33;;
18693;SDS011;9477;51.414;10.362;2023-05-07T02:07:32;28.80;;;20.90;;
18693;SDS011;9477;51.414;10.362;2023-05-07T02:09:35;28.57;;;20.80;;
18693;SDS011;9477;51.414;10.362;2023-05-07T02:11:38;28.27;;;20.43;;
18693;SDS011;9477;51.414;10.362;2023-05-07T02:13:42;28.07;;;20.60;;
18693;SDS011;9477;51.414;10.362;2023-05-07T02:15:46;27.03;;;20.13;;
18693;SDS011;9477;51.414;10.362;2023-05-07T02:17:58;28.57;;;21.57;;
18693;SDS011;9477;51.414;10.362;2023-05-07T02:20:02;25.23;;;19.30;;
18693;SDS011;9477;51.414;10.362;2023-05-07T02:22:06;26.47;;;19.87;;
18693;SDS011;9477;51.414;10.362;2023-05-07T02:24:09;28.40;;;20.80;;
18693;SDS011;9477;51.414;10.362;2023-05-07T02:26:11;31.00;;;21.77;;
18693;SDS011;9477;51.414;10.362;2023-05-07T02:28:14;28.47;;;20.73;;
18693;SDS011;9477;51.414;10.362;2023-05-07T02:30:19;26.67;;;20.17;;
18693;SDS011;9477;51.414;10.362;2023-05-07T02:32:22;26.50;;;19.93;;
18693;SDS011;9477;51.414;10.362;2023-05-07T02:34:25;25.97;;;19.83;;
18693;SDS011;9477;51.414;10.362;2023-05-07T02:36:28;27.43;;;20.57;;
18693;SDS011;9477;51.414;10.362;2023-05-07T02:38:31;26.47;;;19.03;;
18693;SDS011;9477;51.414;10.362;2023-05-07T02:40:34;26.63;;;19.83;;
18693;SDS011;9477;51.414;10.362;2023-05-07T02:42:39;26.93;;;20.53;;
18693;SDS011;9477;51.414;10.362;2023-05-07T02:44:42;27.07;;;20.07;;
18693;SDS011;9477;51.414;10.362;2023-05-07T02:46:47;26.30;;;18.67;;
18693;SDS011;9477;51.414;10.362;2023-05-07T02:48:49;26.10;;;18.83;;
18693;SDS011;9477;51.414;10.362;2023-05-07T02:50:52;26.30;;;18.67;;
18693;SDS011;9477;51.414;10.362;2023-05-07T02:52:55;25.50;;;19.20;;
18693;SDS011;9477;51.414;10.362;2023-05-07T02:54:58;24.03;;;17.73;;
18693;SDS011;9477;51.414;10.362;2023-05-07T02:57:01;24.17;;;18.50;;
18693;SDS011;9477;51.414;10.362;2023-05-07T02:59:04;24.33;;;17.97;;
18693;SDS011;9477;51.414;10.362;2023-05-07T03:01:07;24.40;;;17.47;;
18693;SDS011;9477;51.414;10.362;2023-05-07T03:03:12;25.70;;;18.43;;
18693;SDS011;9477;51.414;10.362;2023-05-07T03:05:14;21.83;;;16.93;;
18693;SDS011;9477;51.414;10.362;2023-05-07T03:07:18;22.13;;;16.37;;
18693;SDS011;9477;51.414;10.362;2023-05-07T03:09:21;23.30;;;17.97;;
18693;SDS011;9477;51.414;10.362;2023-05-07T03:11:24;25.57;;;18.60;;
18693;SDS011;9477;51.414;10.362;2023-05-07T03:13:26;23.10;;;17.10;;
18693;SDS011;9477;51.414;10.362;2023-05-07T03:15:29;19.53;;;15.83;;
18693;SDS011;9477;51.414;10.362;2023-05-07T03:17:32;19.63;;;15.27;;
18693;SDS011;9477;51.414;10.362;2023-05-07T03:19:36;21.67;;;16.47;;
18693;SDS011;9477;51.414;10.362;2023-05-07T03:21:39;20.30;;;15.80;;
18693;SDS011;9477;51.414;10.362;2023-05-07T03:23:42;22.90;;;16.07;;
18693;SDS011;9477;51.414;10.362;2023-05-07T03:25:44;21.70;;;14.73;;
18693;SDS011;9477;51.414;10.362;2023-05-07T03:27:47;21.50;;;15.33;;
18693;SDS011;9477;51.414;10.362;2023-05-07T03:29:50;21.27;;;15.17;;
18693;SDS011;9477;51.414;10.362;2023-05-07T03:31:53;22.17;;;15.57;;
18693;SDS011;9477;51.414;10.362;2023-05-07T03:33:56;23.40;;;15.80;;
18693;SDS011;9477;51.414;10.362;2023-05-07T03:36:00;21.73;;;15.83;;
18693;SDS011;9477;51.414;10.362;2023-05-07T03:38:03;22.33;;;16.20;;
18693;SDS011;9477;51.414;10.362;2023-05-07T03:40:07;22.70;;;15.90;;
18693;SDS011;9477;51.414;10.362;2023-05-07T03:42:12;22.40;;;15.37;;
18693;SDS011;9477;51.414;10.362;2023-05-07T03:44:14;21.80;;;16.00;;
18693;SDS011;9477;51.414;10.362;2023-05-07T03:46:17;21.97;;;16.13;;
18693;SDS011;9477;51.414;10.362;2023-05-07T03:48:20;24.10;;;16.23;;
18693;SDS011;9477;51.414;10.362;2023-05-07T03:50:23;25.97;;;17.33;;
18693;SDS011;9477;51.414;10.362;2023-05-07T03:52:27;25.83;;;16.60;;
18693;SDS011;9477;51.414;10.362;2023-05-07T03:54:30;23.30;;;16.20;;
18693;SDS011;9477;51.414;10.362;2023-05-07T03:56:33;23.60;;;16.80;;
18693;SDS011;9477;51.414;10.362;2023-05-07T03:58:36;22.77;;;16.73;;
18693;SDS011;9477;51.414;10.362;2023-05-07T04:00:38;23.57;;;17.00;;
18693;SDS011;9477;51.414;10.362;2023-05-07T04:02:42;24.73;;;16.73;;
18693;SDS011;9477;51.414;10.362;2023-05-07T04:04:45;24.23;;;16.30;;
18693;SDS011;9477;51.414;10.362;2023-05-07T04:06:48;25.20;;;16.80;;
18693;SDS011;9477;51.414;10.362;2023-05-07T04:08:52;24.30;;;16.77;;
18693;SDS011;9477;51.414;10.362;2023-05-07T04:10:55;26.80;;;17.87;;
18693;SDS011;9477;51.414;10.362;2023-05-07T04:12:58;27.00;;;17.73;;
18693;SDS011;9477;51.414;10.362;2023-05-07T04:15:01;25.93;;;17.33;;
18693;SDS011;9477;51.414;10.362;2023-05-07T04:17:04;27.07;;;17.33;;
18693;SDS011;9477;51.414;10.362;2023-05-07T04:19:07;27.17;;;17.33;;
18693;SDS011;9477;51.414;10.362;2023-05-07T04:21:13;24.97;;;16.97;;
18693;SDS011;9477;51.414;10.362;2023-05-07T04:23:16;29.17;;;18.47;;
18693;SDS011;9477;51.414;10.362;2023-05-07T04:25:21;29.47;;;18.90;;
18693;SDS011;9477;51.414;10.362;2023-05-07T04:27:27;30.20;;;18.47;;
18693;SDS011;9477;51.414;10.362;2023-05-07T04:29:30;26.13;;;17.47;;
18693;SDS011;9477;51.414;10.362;2023-05-07T04:31:33;28.03;;;18.77;;
18693;SDS011;9477;51.414;10.362;2023-05-07T04:33:36;27.80;;;18.33;;
18693;SDS011;9477;51.414;10.362;2023-05-07T04:35:39;26.33;;;17.33;;
18693;SDS011;9477;51.414;10.362;2023-05-07T04:37:42;28.33;;;17.63;;
18693;SDS011;9477;51.414;10.362;2023-05-07T04:39:44;29.57;;;18.40;;
18693;SDS011;9477;51.414;10.362;2023-05-07T04:41:49;26.57;;;17.40;;
18693;SDS011;9477;51.414;10.362;2023-05-07T04:43:51;26.87;;;16.87;;
18693;SDS011;9477;51.414;10.362;2023-05-07T04:45:54;26.83;;;17.77;;
18693;SDS011;9477;51.414;10.362;2023-05-07T04:47:57;23.57;;;16.33;;
18693;SDS011;9477;51.414;10.362;2023-05-07T04:50:00;26.20;;;17.57;;
18693;SDS011;9477;51.414;10.362;2023-05-07T04:52:03;27.37;;;17.63;;
18693;SDS011;9477;51.414;10.362;2023-05-07T04:54:06;26.43;;;18.03;;
18693;SDS011;9477;51.414;10.362;2023-05-07T04:56:09;23.23;;;16.67;;
18693;SDS011;9477;51.414;10.362;2023-05-07T04:58:13;22.97;;;16.10;;
18693;SDS011;9477;51.414;10.362;2023-05-07T05:00:16;23.43;;;15.37;;
18693;SDS011;9477;51.414;10.362;2023-05-07T05:02:20;28.40;;;18.57;;
18693;SDS011;9477;51.414;10.362;2023-05-07T05:04:23;23.77;;;16.37;;
18693;SDS011;9477;51.414;10.362;2023-05-07T05:06:26;25.93;;;17.63;;
18693;SDS011;9477;51.414;10.362;2023-05-07T05:08:29;25.33;;;17.37;;
18693;SDS011;9477;51.414;10.362;2023-05-07T05:10:32;26.30;;;18.40;;
18693;SDS011;9477;51.414;10.362;2023-05-07T05:12:35;25.17;;;16.73;;
18693;SDS011;9477;51.414;10.362;2023-05-07T05:14:39;24.73;;;17.53;;
18693;SDS011;9477;51.414;10.362;2023-05-07T05:16:42;28.07;;;19.33;;
18693;SDS011;9477;51.414;10.362;2023-05-07T05:18:45;26.97;;;19.33;;
18693;SDS011;9477;51.414;10.362;2023-05-07T05:20:48;26.90;;;18.43;;
18693;SDS011;9477;51.414;10.362;2023-05-07T05:22:51;25.77;;;17.53;;
18693;SDS011;9477;51.414;10.362;2023-05-07T05:24:54;26.80;;;18.30;;
18693;SDS011;9477;51.414;10.362;2023-05-07T05:26:57;23.53;;;16.57;;
18693;SDS011;9477;51.414;10.362;2023-05-07T05:29:01;24.83;;;17.60;;
18693;SDS011;9477;51.414;10.362;2023-05-07T05:31:05;27.70;;;17.77;;
18693;SDS011;9477;51.414;10.362;2023-05-07T05:33:08;24.00;;;17.27;;
18693;SDS011;9477;51.414;10.362;2023-05-07T05:35:11;25.17;;;17.03;;
18693;SDS011;9477;51.414;10.362;2023-05-07T05:37:14;24.63;;;17.30;;
18693;SDS011;9477;51.414;10.362;2023-05-07T05:39:16;27.43;;;17.57;;
18693;SDS011;9477;51.414;10.362;2023-05-07T05:41:19;27.63;;;17.87;;
18693;SDS011;9477;51.414;10.362;2023-05-07T05:43:22;23.30;;;16.20;;
18693;SDS011;9477;51.414;10.362;2023-05-07T05:45:25;27.40;;;18.23;;
18693;SDS011;9477;51.414;10.362;2023-05-07T05:47:29;28.13;;;18.57;;
18693;SDS011;9477;51.414;10.362;2023-05-07T05:49:32;25.77;;;17.30;;
18693;SDS011;9477;51.414;10.362;2023-05-07T05:51:36;26.23;;;17.27;;
18693;SDS011;9477;51.414;10.362;2023-05-07T05:53:39;26.63;;;18.03;;
18693;SDS011;9477;51.414;10.362;2023-05-07T05:55:41;27.27;;;16.23;;
18693;SDS011;9477;51.414;10.362;2023-05-07T05:57:44;27.50;;;17.33;;
18693;SDS011;9477;51.414;10.362;2023-05-07T05:59:47;27.40;;;16.53;;
18693;SDS011;9477;51.414;10.362;2023-05-07T06:01:50;23.77;;;16.30;;
18693;SDS011;9477;51.414;10.362;2023-05-07T06:03:55;23.30;;;15.43;;
18693;SDS011;9477;51.414;10.362;2023-05-07T06:05:58;23.20;;;15.60;;
18693;SDS011;9477;51.414;10.362;2023-05-07T06:08:02;22.57;;;15.70;;
18693;SDS011;9477;51.414;10.362;2023-05-07T06:10:06;25.80;;;15.67;;
18693;SDS011;9477;51.414;10.362;2023-05-07T06:12:10;24.77;;;15.97;;
18693;SDS011;9477;51.414;10.362;2023-05-07T06:14:13;26.43;;;16.10;;
18693;SDS011;9477;51.414;10.362;2023-05-07T06:16:15;23.63;;;15.70;;
18693;SDS011;9477;51.414;10.362;2023-05-07T06:18:18;26.33;;;16.40;;
18693;SDS011;9477;51.414;10.362;2023-05-07T06:20:22;22.87;;;14.50;;
18693;SDS011;9477;51.414;10.362;2023-05-07T06:22:25;21.20;;;14.23;;
18693;SDS011;9477;51.414;10.362;2023-05-07T06:24:28;25.50;;;15.77;;
18693;SDS011;9477;51.414;10.362;2023-05-07T06:26:31;21.53;;;13.93;;
18693;SDS011;9477;51.414;10.362;2023-05-07T06:28:34;20.50;;;13.33;;
18693;SDS011;9477;51.414;10.362;2023-05-07T06:30:37;19.43;;;12.97;;
18693;SDS011;9477;51.414;10.362;2023-05-07T06:32:41;22.20;;;13.83;;
18693;SDS011;9477;51.414;10.362;2023-05-07T06:34:44;18.90;;;12.70;;
18693;SDS011;9477;51.414;10.362;2023-05-07T06:36:48;18.37;;;12.20;;
18693;SDS011;9477;51.414;10.362;2023-05-07T06:38:51;22.57;;;13.33;;
18693;SDS011;9477;51.414;10.362;2023-05-07T06:40:53;21.17;;;12.97;;
18693;SDS011;9477;51.414;10.362;2023-05-07T06:42:58;20.33;;;12.57;;
18693;SDS011;9477;51.414;10.362;2023-05-07T06:45:01;16.93;;;11.37;;
18693;SDS011;9477;51.414;10.362;2023-05-07T06:47:04;16.73;;;10.90;;
18693;SDS011;9477;51.414;10.362;2023-05-07T06:49:07;20.40;;;11.63;;
18693;SDS011;9477;51.414;10.362;2023-05-07T06:51:09;18.13;;;11.37;;
18693;SDS011;9477;51.414;10.362;2023-05-07T06:53:13;18.30;;;11.70;;
18693;SDS011;9477;51.414;10.362;2023-05-07T06:55:16;19.30;;;12.23;;
18693;SDS011;9477;51.414;10.362;2023-05-07T06:57:20;18.33;;;12.10;;
18693;SDS011;9477;51.414;10.362;2023-05-07T06:59:23;19.70;;;11.97;;
18693;SDS011;9477;51.414;10.362;2023-05-07T07:01:26;19.17;;;11.80;;
18693;SDS011;9477;51.414;10.362;2023-05-07T07:03:29;19.23;;;12.07;;
18693;SDS011;9477;51.414;10.362;2023-05-07T07:05:32;20.90;;;12.03;;
18693;SDS011;9477;51.414;10.362;2023-05-07T07:07:35;18.03;;;12.00;;
18693;SDS011;9477;51.414;10.362;2023-05-07T07:09:39;17.87;;;11.60;;
18693;SDS011;9477;51.414;10.362;2023-05-07T07:11:42;18.17;;;10.63;;
18693;SDS011;9477;51.414;10.362;2023-05-07T07:13:44;17.10;;;10.93;;
18693;SDS011;9477;51.414;10.362;2023-05-07T07:15:47;16.40;;;10.87;;
18693;SDS011;9477;51.414;10.362;2023-05-07T07:17:50;17.43;;;10.70;;
18693;SDS011;9477;51.414;10.362;2023-05-07T07:19:53;17.47;;;10.77;;
18693;SDS011;9477;51.414;10.362;2023-05-07T07:21:56;15.73;;;10.50;;
18693;SDS011;9477;51.414;10.362;2023-05-07T07:23:59;15.97;;;10.13;;
18693;SDS011;9477;51.414;10.362;2023-05-07T07:26:03;18.90;;;11.97;;
18693;SDS011;9477;51.414;10.362;2023-05-07T07:28:07;16.23;;;11.23;;
18693;SDS011;9477;51.414;10.362;2023-05-07T07:30:10;14.53;;;10.33;;
18693;SDS011;9477;51.414;10.362;2023-05-07T07:32:13;16.57;;;10.93;;
18693;SDS011;9477;51.414;10.362;2023-05-07T07:34:16;15.20;;;10.83;;
18693;SDS011;9477;51.414;10.362;2023-05-07T07:36:19;15.70;;;10.70;;
18693;SDS011;9477;51.414;10.362;2023-05-07T07:38:23;14.83;;;10.53;;
18693;SDS011;9477;51.414;10.362;2023-05-07T07:40:26;12.77;;;9.67;;
18693;SDS011;9477;51.414;10.362;2023-05-07T07:42:30;15.73;;;11.07;;
18693;SDS011;9477;51.414;10.362;2023-05-07T07:44:33;15.80;;;10.43;;
18693;SDS011;9477;51.414;10.362;2023-05-07T07:46:36;15.23;;;11.20;;
18693;SDS011;9477;51.414;10.362;2023-05-07T07:48:39;14.00;;;10.13;;
18693;SDS011;9477;51.414;10.362;2023-05-07T07:50:42;15.00;;;10.30;;
18693;SDS011;9477;51.414;10.362;2023-05-07T07:52:46;14.93;;;10.43;;
18693;SDS011;9477;51.414;10.362;2023-05-07T07:54:50;12.30;;;9.40;;
18693;SDS011;9477;51.414;10.362;2023-05-07T07:56:52;15.40;;;10.97;;
18693;SDS011;9477;51.414;10.362;2023-05-07T07:58:56;13.13;;;10.03;;
18693;SDS011;9477;51.414;10.362;2023-05-07T08:00:59;13.77;;;9.90;;
18693;SDS011;9477;51.414;10.362;2023-05-07T08:03:02;15.60;;;11.07;;
18693;SDS011;9477;51.414;10.362;2023-05-07T08:05:06;14.10;;;10.47;;
18693;SDS011;9477;51.414;10.362;2023-05-07T08:07:10;14.50;;;11.13;;
18693;SDS011;9477;51.414;10.362;2023-05-07T08:09:13;15.13;;;11.00;;
18693;SDS011;9477;51.414;10.362;2023-05-07T08:11:16;14.80;;;11.07;;
18693;SDS011;9477;51.414;10.362;2023-05-07T08:13:18;14.77;;;11.20;;
18693;SDS011;9477;51.414;10.362;2023-05-07T08:15:23;18.10;;;12.33;;
18693;SDS011;9477;51.414;10.362;2023-05-07T08:17:26;17.63;;;13.20;;
18693;SDS011;9477;51.414;10.362;2023-05-07T08:19:29;18.57;;;13.73;;
18693;SDS011;9477;51.414;10.362;2023-05-07T08:21:31;17.03;;;12.90;;
18693;SDS011;9477;51.414;10.362;2023-05-07T08:23:35;18.60;;;12.70;;
18693;SDS011;9477;51.414;10.362;2023-05-07T08:25:37;15.40;;;12.60;;
18693;SDS011;9477;51.414;10.362;2023-05-07T08:27:41;17.37;;;13.30;;
18693;SDS011;9477;51.414;10.362;2023-05-07T08:29:45;16.97;;;12.97;;
18693;SDS011;9477;51.414;10.362;2023-05-07T08:31:50;17.47;;;13.30;;
18693;SDS011;9477;51.414;10.362;2023-05-07T08:33:53;19.53;;;14.37;;
18693;SDS011;9477;51.414;10.362;2023-05-07T08:35:56;20.20;;;15.00;;
18693;SDS011;9477;51.414;10.362;2023-05-07T08:37:59;21.70;;;14.50;;
18693;SDS011;9477;51.414;10.362;2023-05-07T08:40:02;23.20;;;15.10;;
18693;SDS011;9477;51.414;10.362;2023-05-07T08:42:09;22.10;;;15.60;;
18693;SDS011;9477;51.414;10.362;2023-05-07T08:44:14;22.10;;;15.93;;
18693;SDS011;9477;51.414;10.362;2023-05-07T08:46:21;21.50;;;15.47;;
18693;SDS011;9477;51.414;10.362;2023-05-07T08:48:25;21.97;;;16.80;;
18693;SDS011;9477;51.414;10.362;2023-05-07T08:50:31;22.47;;;16.20;;
18693;SDS011;9477;51.414;10.362;2023-05-07T08:52:37;20.80;;;16.40;;
18693;SDS011;9477;51.414;10.362;2023-05-07T08:54:41;19.77;;;16.33;;
18693;SDS011;9477;51.414;10.362;2023-05-07T08:56:45;21.00;;;15.90;;
18693;SDS011;9477;51.414;10.362;2023-05-07T08:58:48;22.07;;;16.83;;
18693;SDS011;9477;51.414;10.362;2023-05-07T09:00:51;22.53;;;17.13;;
18693;SDS011;9477;51.414;10.362;2023-05-07T09:02:56;22.70;;;16.67;;
18693;SDS011;9477;51.414;10.362;2023-05-07T09:05:00;23.90;;;17.83;;
18693;SDS011;9477;51.414;10.362;2023-05-07T09:07:03;22.43;;;16.83;;
18693;SDS011;9477;51.414;10.362;2023-05-07T09:09:07;20.93;;;16.73;;
18693;SDS011;9477;51.414;10.362;2023-05-07T09:11:10;24.03;;;18.37;;
18693;SDS011;9477;51.414;10.362;2023-05-07T09:13:14;20.20;;;16.13;;
18693;SDS011;9477;51.414;10.362;2023-05-07T09:15:19;23.60;;;17.27;;
18693;SDS011;9477;51.414;10.362;2023-05-07T09:17:22;22.33;;;16.80;;
18693;SDS011;9477;51.414;10.362;2023-05-07T09:19:26;25.73;;;17.80;;
18693;SDS011;9477;51.414;10.362;2023-05-07T09:21:30;23.60;;;18.53;;
18693;SDS011;9477;51.414;10.362;2023-05-07T09:23:33;24.03;;;17.63;;
18693;SDS011;9477;51.414;10.362;2023-05-07T09:25:36;21.77;;;17.57;;
18693;SDS011;9477;51.414;10.362;2023-05-07T09:27:41;23.67;;;18.53;;
18693;SDS011;9477;51.414;10.362;2023-05-07T09:29:44;19.60;;;15.90;;
18693;SDS011;9477;51.414;10.362;2023-05-07T09:31:47;22.00;;;17.93;;
18693;SDS011;9477;51.414;10.362;2023-05-07T09:33:50;21.47;;;17.30;;
18693;SDS011;9477;51.414;10.362;2023-05-07T09:35:54;23.93;;;18.17;;
18693;SDS011;9477;51.414;10.362;2023-05-07T09:37:59;20.63;;;17.33;;
18693;SDS011;9477;51.414;10.362;2023-05-07T09:40:05;22.80;;;18.03;;
18693;SDS011;9477;51.414;10.362;2023-05-07T09:42:10;22.40;;;17.57;;
18693;SDS011;9477;51.414;10.362;2023-05-07T09:44:15;21.67;;;16.93;;
18693;SDS011;9477;51.414;10.362;2023-05-07T09:46:19;22.20;;;17.40;;
18693;SDS011;9477;51.414;10.362;2023-05-07T09:48:27;20.47;;;17.07;;
18693;SDS011;9477;51.414;10.362;2023-05-07T09:50:32;22.20;;;17.77;;
18693;SDS011;9477;51.414;10.362;2023-05-07T09:52:39;22.70;;;18.40;;
18693;SDS011;9477;51.414;10.362;2023-05-07T09:54:45;22.13;;;17.43;;
18693;SDS011;9477;51.414;10.362;2023-05-07T09:56:49;21.70;;;17.53;;
18693;SDS011;9477;51.414;10.362;2023-05-07T09:58:54;21.03;;;16.87;;
18693;SDS011;9477;51.414;10.362;2023-05-07T10:00:59;20.60;;;16.27;;
18693;SDS011;9477;51.414;10.362;2023-05-07T10:03:04;21.40;;;17.63;;
18693;SDS011;9477;51.414;10.362;2023-05-07T10:05:10;20.83;;;18.03;;
18693;SDS011;9477;51.414;10.362;2023-05-07T10:07:13;23.57;;;17.77;;
18693;SDS011;9477;51.414;10.362;2023-05-07T10:09:17;23.40;;;18.23;;
18693;SDS011;9477;51.414;10.362;2023-05-07T10:11:22;20.93;;;17.57;;
18693;SDS011;9477;51.414;10.362;2023-05-07T10:13:25;21.57;;;17.70;;
18693;SDS011;9477;51.414;10.362;2023-05-07T10:15:29;23.57;;;17.67;;
18693;SDS011;9477;51.414;10.362;2023-05-07T10:17:32;22.80;;;18.07;;
18693;SDS011;9477;51.414;10.362;2023-05-07T10:19:36;22.40;;;18.37;;
18693;SDS011;9477;51.414;10.362;2023-05-07T10:21:42;23.10;;;17.70;;
18693;SDS011;9477;51.414;10.362;2023-05-07T10:23:49;23.03;;;16.93;;
18693;SDS011;9477;51.414;10.362;2023-05-07T10:25:53;21.37;;;17.27;;
18693;SDS011;9477;51.414;10.362;2023-05-07T10:28:04;20.97;;;16.73;;
18693;SDS011;9477;51.414;10.362;2023-05-07T10:30:12;18.70;;;15.63;;
18693;SDS011;9477;51.414;10.362;2023-05-07T10:32:28;19.33;;;16.27;;
18693;SDS011;9477;51.414;10.362;2023-05-07T10:34:39;20.33;;;15.87;;
18693;SDS011;9477;51.414;10.362;2023-05-07T10:36:45;20.73;;;16.87;;
18693;SDS011;9477;51.414;10.362;2023-05-07T10:38:48;20.37;;;16.60;;
18693;SDS011;9477;51.414;10.362;2023-05-07T10:40:52;23.03;;;17.10;;
18693;SDS011;9477;51.414;10.362;2023-05-07T10:42:55;20.73;;;16.40;;
18693;SDS011;9477;51.414;10.362;2023-05-07T10:45:12;21.30;;;16.90;;
18693;SDS011;9477;51.414;10.362;2023-05-07T10:47:16;20.47;;;16.30;;
18693;SDS011;9477;51.414;10.362;2023-05-07T10:49:20;21.13;;;17.93;;
18693;SDS011;9477;51.414;10.362;2023-05-07T10:51:24;21.03;;;17.50;;
18693;SDS011;9477;51.414;10.362;2023-05-07T10:53:27;22.23;;;17.50;;
18693;SDS011;9477;51.414;10.362;2023-05-07T10:55:30;20.03;;;15.80;;
18693;SDS011;9477;51.414;10.362;2023-05-07T10:57:33;19.10;;;15.93;;
18693;SDS011;9477;51.414;10.362;2023-05-07T10:59:38;18.07;;;15.20;;
18693;SDS011;9477;51.414;10.362;2023-05-07T11:01:52;20.83;;;16.30;;
18693;SDS011;9477;51.414;10.362;2023-05-07T11:06:18;18.87;;;15.97;;
18693;SDS011;9477;51.414;10.362;2023-05-07T11:08:21;20.93;;;15.33;;
18693;SDS011;9477;51.414;10.362;2023-05-07T11:10:26;20.00;;;15.13;;
18693;SDS011;9477;51.414;10.362;2023-05-07T11:12:50;17.90;;;14.27;;
18693;SDS011;9477;51.414;10.362;2023-05-07T11:14:57;18.90;;;14.50;;
18693;SDS011;9477;51.414;10.362;2023-05-07T11:17:03;17.50;;;14.90;;
18693;SDS011;9477;51.414;10.362;2023-05-07T11:19:06;18.13;;;14.47;;
18693;SDS011;9477;51.414;10.362;2023-05-07T11:21:09;17.27;;;14.23;;
18693;SDS011;9477;51.414;10.362;2023-05-07T11:26:02;17.80;;;14.33;;
18693;SDS011;9477;51.414;10.362;2023-05-07T11:28:06;17.10;;;14.10;;
18693;SDS011;9477;51.414;10.362;2023-05-07T11:30:16;18.50;;;14.73;;
18693;SDS011;9477;51.414;10.362;2023-05-07T11:32:23;18.10;;;14.23;;
18693;SDS011;9477;51.414;10.362;2023-05-07T11:34:27;16.60;;;13.80;;
18693;SDS011;9477;51.414;10.362;2023-05-07T11:36:30;17.53;;;14.93;;
18693;SDS011;9477;51.414;10.362;2023-05-07T11:38:34;16.70;;;14.73;;
18693;SDS011;9477;51.414;10.362;2023-05-07T11:40:48;16.43;;;13.70;;
18693;SDS011;9477;51.414;10.362;2023-05-07T11:42:52;15.83;;;14.13;;
18693;SDS011;9477;51.414;10.362;2023-05-07T11:44:55;17.03;;;14.70;;
18693;SDS011;9477;51.414;10.362;2023-05-07T11:46:58;15.30;;;13.40;;
18693;SDS011;9477;51.414;10.362;2023-05-07T11:49:03;16.83;;;13.77;;
18693;SDS011;9477;51.414;10.362;2023-05-07T11:51:06;15.37;;;13.67;;
18693;SDS011;9477;51.414;10.362;2023-05-07T11:53:13;15.63;;;13.27;;
18693;SDS011;9477;51.414;10.362;2023-05-07T11:55:18;14.53;;;12.77;;
18693;SDS011;9477;51.414;10.362;2023-05-07T11:57:21;15.80;;;13.03;;
18693;SDS011;9477;51.414;10.362;2023-05-07T11:59:25;17.70;;;13.00;;
18693;SDS011;9477;51.414;10.362;2023-05-07T12:01:27;15.33;;;13.07;;
18693;SDS011;9477;51.414;10.362;2023-05-07T12:03:30;15.07;;;12.60;;
18693;SDS011;9477;51.414;10.362;2023-05-07T12:05:38;16.23;;;11.90;;
18693;SDS011;9477;51.414;10.362;2023-05-07T12:07:43;13.37;;;11.83;;
18693;SDS011;9477;51.414;10.362;2023-05-07T12:09:46;15.50;;;12.30;;